sensor_id;sensor_type;location;lat;lon;timestamp;temperature;humidity
47368;DHT22;34646;47.964;7.982;2022-10-31T00:05:32;19.60;75.80
47368;DHT22;34646;47.964;7.982;2022-10-31T00:11:33;19.60;75.80
47368;DHT22;34646;47.964;7.982;2022-10-31T00:17:35;19.60;75.80
47368;DHT22;34646;47.964;7.982;2022-10-31T00:23:36;19.60;75.80
47368;DHT22;34646;47.964;7.982;2022-10-31T00:29:37;19.60;75.80
47368;DHT22;34646;47.964;7.982;2022-10-31T00:35:39;19.60;75.80
47368;DHT22;34646;47.964;7.982;2022-10-31T00:41:39;19.60;75.80
47368;DHT22;34646;47.964;7.982;2022-10-31T00:47:46;19.60;75.80
47368;DHT22;34646;47.964;7.982;2022-10-31T00:53:47;19.60;75.80
47368;DHT22;34646;47.964;7.982;2022-10-31T00:59:47;19.60;75.80
47368;DHT22;34646;47.964;7.982;2022-10-31T01:06:09;19.60;75.80
47368;DHT22;34646;47.964;7.982;2022-10-31T01:12:10;19.60;75.80
47368;DHT22;34646;47.964;7.982;2022-10-31T01:18:14;19.60;75.80
47368;DHT22;34646;47.964;7.982;2022-10-31T01:24:14;19.60;75.80
47368;DHT22;34646;47.964;7.982;2022-10-31T01:30:15;19.50;75.80
47368;DHT22;34646;47.964;7.982;2022-10-31T01:36:20;19.60;75.80
47368;DHT22;34646;47.964;7.982;2022-10-31T01:42:24;19.50;75.80
47368;DHT22;34646;47.964;7.982;2022-10-31T01:48:27;19.50;75.80
47368;DHT22;34646;47.964;7.982;2022-10-31T01:54:32;19.50;75.80
47368;DHT22;34646;47.964;7.982;2022-10-31T02:00:34;19.50;75.80
47368;DHT22;34646;47.964;7.982;2022-10-31T02:06:46;19.50;75.80
47368;DHT22;34646;47.964;7.982;2022-10-31T02:12:50;19.50;75.80
47368;DHT22;34646;47.964;7.982;2022-10-31T02:18:51;19.50;75.80
47368;DHT22;34646;47.964;7.982;2022-10-31T02:25:08;19.50;75.80
47368;DHT22;34646;47.964;7.982;2022-10-31T02:37:49;19.50;75.80
47368;DHT22;34646;47.964;7.982;2022-10-31T02:50:09;19.50;75.80
47368;DHT22;34646;47.964;7.982;2022-10-31T02:56:15;19.50;75.80
47368;DHT22;34646;47.964;7.982;2022-10-31T03:08:23;19.50;75.80
47368;DHT22;34646;47.964;7.982;2022-10-31T03:14:53;19.50;75.80
47368;DHT22;34646;47.964;7.982;2022-10-31T03:21:19;19.50;75.70
47368;DHT22;34646;47.964;7.982;2022-10-31T03:27:26;19.40;75.70
47368;DHT22;34646;47.964;7.982;2022-10-31T03:33:31;19.40;75.70
47368;DHT22;34646;47.964;7.982;2022-10-31T03:39:33;19.40;75.70
47368;DHT22;34646;47.964;7.982;2022-10-31T03:45:40;19.40;75.70
47368;DHT22;34646;47.964;7.982;2022-10-31T03:57:54;19.40;75.80
47368;DHT22;34646;47.964;7.982;2022-10-31T04:03:57;19.40;75.70
47368;DHT22;34646;47.964;7.982;2022-10-31T04:10:00;19.40;75.70
47368;DHT22;34646;47.964;7.982;2022-10-31T04:16:02;19.40;75.80
47368;DHT22;34646;47.964;7.982;2022-10-31T04:22:03;19.40;75.70
47368;DHT22;34646;47.964;7.982;2022-10-31T04:28:05;19.40;75.70
47368;DHT22;34646;47.964;7.982;2022-10-31T04:34:06;19.40;75.70
47368;DHT22;34646;47.964;7.982;2022-10-31T04:40:08;19.30;75.70
47368;DHT22;34646;47.964;7.982;2022-10-31T04:46:27;19.40;75.70
47368;DHT22;34646;47.964;7.982;2022-10-31T04:52:29;19.40;75.70
47368;DHT22;34646;47.964;7.982;2022-10-31T04:58:31;19.40;75.70
47368;DHT22;34646;47.964;7.982;2022-10-31T05:04:32;19.30;75.70
47368;DHT22;34646;47.964;7.982;2022-10-31T05:10:33;19.30;75.70
47368;DHT22;34646;47.964;7.982;2022-10-31T05:16:35;19.30;75.70
47368;DHT22;34646;47.964;7.982;2022-10-31T05:22:57;19.30;75.70
47368;DHT22;34646;47.964;7.982;2022-10-31T05:28:58;19.30;75.70
47368;DHT22;34646;47.964;7.982;2022-10-31T05:34:58;19.30;75.70
47368;DHT22;34646;47.964;7.982;2022-10-31T05:41:16;19.30;75.70
47368;DHT22;34646;47.964;7.982;2022-10-31T05:47:19;19.30;75.70
47368;DHT22;34646;47.964;7.982;2022-10-31T05:53:29;19.30;75.70
47368;DHT22;34646;47.964;7.982;2022-10-31T05:59:30;19.30;75.70
47368;DHT22;34646;47.964;7.982;2022-10-31T06:05:32;19.30;75.70
47368;DHT22;34646;47.964;7.982;2022-10-31T06:11:33;19.30;75.70
47368;DHT22;34646;47.964;7.982;2022-10-31T06:17:36;19.30;75.70
47368;DHT22;34646;47.964;7.982;2022-10-31T06:23:43;19.30;75.70
47368;DHT22;34646;47.964;7.982;2022-10-31T06:30:10;19.30;75.70
47368;DHT22;34646;47.964;7.982;2022-10-31T06:36:11;19.30;75.70
47368;DHT22;34646;47.964;7.982;2022-10-31T06:42:12;19.20;75.70
47368;DHT22;34646;47.964;7.982;2022-10-31T06:48:13;19.30;75.70
47368;DHT22;34646;47.964;7.982;2022-10-31T06:54:32;19.20;75.70
47368;DHT22;34646;47.964;7.982;2022-10-31T07:00:33;19.20;75.70
47368;DHT22;34646;47.964;7.982;2022-10-31T07:06:40;19.20;75.70
47368;DHT22;34646;47.964;7.982;2022-10-31T07:12:42;19.20;75.70
47368;DHT22;34646;47.964;7.982;2022-10-31T07:18:43;19.20;75.60
47368;DHT22;34646;47.964;7.982;2022-10-31T07:24:46;19.20;75.60
47368;DHT22;34646;47.964;7.982;2022-10-31T07:31:12;19.20;75.60
47368;DHT22;34646;47.964;7.982;2022-10-31T07:37:13;19.20;76.20
47368;DHT22;34646;47.964;7.982;2022-10-31T07:43:14;19.20;75.60
47368;DHT22;34646;47.964;7.982;2022-10-31T07:49:33;19.20;75.60
47368;DHT22;34646;47.964;7.982;2022-10-31T07:55:52;19.20;75.70
47368;DHT22;34646;47.964;7.982;2022-10-31T08:01:53;19.20;75.60
47368;DHT22;34646;47.964;7.982;2022-10-31T08:08:06;19.20;75.70
47368;DHT22;34646;47.964;7.982;2022-10-31T08:14:07;19.20;75.60
47368;DHT22;34646;47.964;7.982;2022-10-31T08:20:08;19.20;75.60
47368;DHT22;34646;47.964;7.982;2022-10-31T08:26:17;19.20;76.00
47368;DHT22;34646;47.964;7.982;2022-10-31T08:32:18;19.20;75.60
47368;DHT22;34646;47.964;7.982;2022-10-31T08:38:53;19.20;75.60
47368;DHT22;34646;47.964;7.982;2022-10-31T08:44:54;19.20;75.60
47368;DHT22;34646;47.964;7.982;2022-10-31T08:50:57;19.20;75.60
47368;DHT22;34646;47.964;7.982;2022-10-31T08:57:03;19.20;75.60
47368;DHT22;34646;47.964;7.982;2022-10-31T09:03:15;19.20;75.60
47368;DHT22;34646;47.964;7.982;2022-10-31T09:09:17;19.20;75.60
47368;DHT22;34646;47.964;7.982;2022-10-31T09:15:17;19.20;75.60
47368;DHT22;34646;47.964;7.982;2022-10-31T09:21:22;19.20;75.60
47368;DHT22;34646;47.964;7.982;2022-10-31T09:27:23;19.20;75.60
47368;DHT22;34646;47.964;7.982;2022-10-31T09:33:24;19.20;75.50
47368;DHT22;34646;47.964;7.982;2022-10-31T09:39:43;19.20;75.60
47368;DHT22;34646;47.964;7.982;2022-10-31T09:46:29;19.20;75.50
47368;DHT22;34646;47.964;7.982;2022-10-31T09:52:36;19.20;75.50
47368;DHT22;34646;47.964;7.982;2022-10-31T09:58:44;19.20;75.50
47368;DHT22;34646;47.964;7.982;2022-10-31T10:18:53;19.20;75.50
47368;DHT22;34646;47.964;7.982;2022-10-31T10:24:44;19.20;75.50
47368;DHT22;34646;47.964;7.982;2022-10-31T10:31:03;19.20;75.50
47368;DHT22;34646;47.964;7.982;2022-10-31T10:43:43;19.20;75.50
47368;DHT22;34646;47.964;7.982;2022-10-31T10:49:51;19.20;75.50
47368;DHT22;34646;47.964;7.982;2022-10-31T11:02:33;19.20;75.50
47368;DHT22;34646;47.964;7.982;2022-10-31T11:08:35;19.20;75.50
47368;DHT22;34646;47.964;7.982;2022-10-31T11:14:57;19.20;75.50
47368;DHT22;34646;47.964;7.982;2022-10-31T11:21:02;19.20;75.50
47368;DHT22;34646;47.964;7.982;2022-10-31T11:27:19;19.20;75.50
47368;DHT22;34646;47.964;7.982;2022-10-31T11:33:27;19.20;75.50
47368;DHT22;34646;47.964;7.982;2022-10-31T11:39:28;19.20;75.50
47368;DHT22;34646;47.964;7.982;2022-10-31T11:45:32;19.20;75.60
47368;DHT22;34646;47.964;7.982;2022-10-31T11:51:34;19.20;75.60
47368;DHT22;34646;47.964;7.982;2022-10-31T12:10:10;19.30;75.70
47368;DHT22;34646;47.964;7.982;2022-10-31T12:16:37;19.30;75.80
47368;DHT22;34646;47.964;7.982;2022-10-31T12:35:26;19.30;75.80
47368;DHT22;34646;47.964;7.982;2022-10-31T13:00:14;19.30;75.80
47368;DHT22;34646;47.964;7.982;2022-10-31T13:06:31;19.30;75.80
47368;DHT22;34646;47.964;7.982;2022-10-31T13:12:34;19.40;75.80
47368;DHT22;34646;47.964;7.982;2022-10-31T13:18:48;19.40;75.80
47368;DHT22;34646;47.964;7.982;2022-10-31T13:25:16;19.40;75.80
47368;DHT22;34646;47.964;7.982;2022-10-31T13:31:18;19.40;75.80
47368;DHT22;34646;47.964;7.982;2022-10-31T13:37:36;19.40;75.80
47368;DHT22;34646;47.964;7.982;2022-10-31T13:50:19;19.40;75.80
47368;DHT22;34646;47.964;7.982;2022-10-31T13:56:31;19.50;76.00
47368;DHT22;34646;47.964;7.982;2022-10-31T14:02:36;19.50;76.00
47368;DHT22;34646;47.964;7.982;2022-10-31T14:08:39;19.50;76.00
47368;DHT22;34646;47.964;7.982;2022-10-31T14:14:47;19.50;76.00
47368;DHT22;34646;47.964;7.982;2022-10-31T14:20:49;19.50;76.00
47368;DHT22;34646;47.964;7.982;2022-10-31T14:33:01;19.50;76.00
47368;DHT22;34646;47.964;7.982;2022-10-31T14:39:15;19.50;76.10
47368;DHT22;34646;47.964;7.982;2022-10-31T14:51:40;19.50;76.00
47368;DHT22;34646;47.964;7.982;2022-10-31T14:57:57;19.50;76.00
47368;DHT22;34646;47.964;7.982;2022-10-31T15:04:22;19.50;76.00
47368;DHT22;34646;47.964;7.982;2022-10-31T15:10:26;19.50;75.90
47368;DHT22;34646;47.964;7.982;2022-10-31T15:16:34;19.50;75.90
47368;DHT22;34646;47.964;7.982;2022-10-31T15:22:35;19.50;75.90
47368;DHT22;34646;47.964;7.982;2022-10-31T15:28:36;19.50;75.90
47368;DHT22;34646;47.964;7.982;2022-10-31T15:34:39;19.50;75.80
47368;DHT22;34646;47.964;7.982;2022-10-31T15:41:01;19.50;75.80
47368;DHT22;34646;47.964;7.982;2022-10-31T15:47:05;19.40;75.80
47368;DHT22;34646;47.964;7.982;2022-10-31T15:53:22;19.40;76.40
47368;DHT22;34646;47.964;7.982;2022-10-31T15:59:27;19.40;75.80
47368;DHT22;34646;47.964;7.982;2022-10-31T16:05:44;19.40;75.90
47368;DHT22;34646;47.964;7.982;2022-10-31T16:11:45;19.40;75.90
47368;DHT22;34646;47.964;7.982;2022-10-31T16:17:50;19.40;75.90
47368;DHT22;34646;47.964;7.982;2022-10-31T16:23:56;19.40;75.90
47368;DHT22;34646;47.964;7.982;2022-10-31T16:29:59;19.40;75.90
47368;DHT22;34646;47.964;7.982;2022-10-31T16:36:33;19.40;75.90
47368;DHT22;34646;47.964;7.982;2022-10-31T16:42:35;19.40;75.90
47368;DHT22;34646;47.964;7.982;2022-10-31T16:48:36;19.40;75.90
47368;DHT22;34646;47.964;7.982;2022-10-31T16:54:37;19.30;75.90
47368;DHT22;34646;47.964;7.982;2022-10-31T17:00:38;19.30;75.90
47368;DHT22;34646;47.964;7.982;2022-10-31T17:06:38;19.30;75.90
47368;DHT22;34646;47.964;7.982;2022-10-31T17:12:45;19.30;75.90
47368;DHT22;34646;47.964;7.982;2022-10-31T17:18:47;19.30;76.00
47368;DHT22;34646;47.964;7.982;2022-10-31T17:24:47;19.30;76.00
47368;DHT22;34646;47.964;7.982;2022-10-31T17:30:48;19.30;76.00
47368;DHT22;34646;47.964;7.982;2022-10-31T17:36:50;19.20;76.00
47368;DHT22;34646;47.964;7.982;2022-10-31T17:42:53;19.30;76.00
47368;DHT22;34646;47.964;7.982;2022-10-31T17:48:54;19.30;76.00
47368;DHT22;34646;47.964;7.982;2022-10-31T17:54:55;19.20;76.00
47368;DHT22;34646;47.964;7.982;2022-10-31T18:00:57;19.30;76.00
47368;DHT22;34646;47.964;7.982;2022-10-31T18:06:57;19.20;76.00
47368;DHT22;34646;47.964;7.982;2022-10-31T18:12:58;19.20;76.00
47368;DHT22;34646;47.964;7.982;2022-10-31T18:18:59;19.20;76.00
47368;DHT22;34646;47.964;7.982;2022-10-31T18:25:01;19.20;76.00
47368;DHT22;34646;47.964;7.982;2022-10-31T18:31:02;19.20;76.00
47368;DHT22;34646;47.964;7.982;2022-10-31T18:37:03;19.20;76.00
47368;DHT22;34646;47.964;7.982;2022-10-31T18:43:04;19.20;76.00
47368;DHT22;34646;47.964;7.982;2022-10-31T18:49:05;19.20;76.00
47368;DHT22;34646;47.964;7.982;2022-10-31T18:55:06;19.20;76.00
47368;DHT22;34646;47.964;7.982;2022-10-31T19:01:08;19.20;76.00
47368;DHT22;34646;47.964;7.982;2022-10-31T19:07:09;19.20;76.10
47368;DHT22;34646;47.964;7.982;2022-10-31T19:13:10;19.20;76.10
47368;DHT22;34646;47.964;7.982;2022-10-31T19:19:11;19.20;76.10
47368;DHT22;34646;47.964;7.982;2022-10-31T19:25:11;19.10;76.00
47368;DHT22;34646;47.964;7.982;2022-10-31T19:31:12;19.20;76.10
47368;DHT22;34646;47.964;7.982;2022-10-31T19:37:13;19.20;76.10
47368;DHT22;34646;47.964;7.982;2022-10-31T19:43:14;19.20;76.10
47368;DHT22;34646;47.964;7.982;2022-10-31T19:49:15;19.20;76.10
47368;DHT22;34646;47.964;7.982;2022-10-31T19:55:15;19.10;76.00
47368;DHT22;34646;47.964;7.982;2022-10-31T20:01:18;19.20;76.10
47368;DHT22;34646;47.964;7.982;2022-10-31T20:07:19;19.20;76.10
47368;DHT22;34646;47.964;7.982;2022-10-31T20:13:21;19.20;76.10
47368;DHT22;34646;47.964;7.982;2022-10-31T20:19:21;19.10;76.00
47368;DHT22;34646;47.964;7.982;2022-10-31T20:25:23;19.10;76.00
47368;DHT22;34646;47.964;7.982;2022-10-31T20:31:26;19.10;76.10
47368;DHT22;34646;47.964;7.982;2022-10-31T20:37:27;19.10;76.10
47368;DHT22;34646;47.964;7.982;2022-10-31T20:43:29;19.10;76.00
47368;DHT22;34646;47.964;7.982;2022-10-31T20:49:29;19.10;76.00
47368;DHT22;34646;47.964;7.982;2022-10-31T20:55:30;19.10;76.00
47368;DHT22;34646;47.964;7.982;2022-10-31T21:01:32;19.10;76.00
47368;DHT22;34646;47.964;7.982;2022-10-31T21:07:35;19.10;76.00
47368;DHT22;34646;47.964;7.982;2022-10-31T21:13:37;19.10;76.00
47368;DHT22;34646;47.964;7.982;2022-10-31T21:19:38;19.10;76.10
47368;DHT22;34646;47.964;7.982;2022-10-31T21:25:40;19.10;76.00
47368;DHT22;34646;47.964;7.982;2022-10-31T21:31:41;19.10;76.00
47368;DHT22;34646;47.964;7.982;2022-10-31T21:37:41;19.10;76.00
47368;DHT22;34646;47.964;7.982;2022-10-31T21:43:44;19.10;76.00
47368;DHT22;34646;47.964;7.982;2022-10-31T21:49:44;19.10;76.00
47368;DHT22;34646;47.964;7.982;2022-10-31T21:55:45;19.00;76.00
47368;DHT22;34646;47.964;7.982;2022-10-31T22:01:46;19.00;76.00
47368;DHT22;34646;47.964;7.982;2022-10-31T22:07:47;19.00;76.00
47368;DHT22;34646;47.964;7.982;2022-10-31T22:13:48;19.00;76.00
47368;DHT22;34646;47.964;7.982;2022-10-31T22:19:49;19.10;76.00
47368;DHT22;34646;47.964;7.982;2022-10-31T22:25:50;19.00;76.00
47368;DHT22;34646;47.964;7.982;2022-10-31T22:31:50;19.00;75.90
47368;DHT22;34646;47.964;7.982;2022-10-31T22:37:52;19.00;76.00
47368;DHT22;34646;47.964;7.982;2022-10-31T22:43:53;19.00;76.00
47368;DHT22;34646;47.964;7.982;2022-10-31T22:49:54;19.00;75.90
47368;DHT22;34646;47.964;7.982;2022-10-31T22:55:55;19.00;75.90
47368;DHT22;34646;47.964;7.982;2022-10-31T23:01:55;19.00;76.00
47368;DHT22;34646;47.964;7.982;2022-10-31T23:07:56;19.00;76.00
47368;DHT22;34646;47.964;7.982;2022-10-31T23:13:57;19.00;76.00
47368;DHT22;34646;47.964;7.982;2022-10-31T23:20:13;19.00;75.90
47368;DHT22;34646;47.964;7.982;2022-10-31T23:26:14;19.00;76.00
47368;DHT22;34646;47.964;7.982;2022-10-31T23:32:35;19.00;76.00
47368;DHT22;34646;47.964;7.982;2022-10-31T23:38:36;19.00;76.00
47368;DHT22;34646;47.964;7.982;2022-10-31T23:44:37;19.00;76.00
47368;DHT22;34646;47.964;7.982;2022-10-31T23:50:38;19.00;75.90
47368;DHT22;34646;47.964;7.982;2022-10-31T23:56:38;19.00;76.00
